SAS25D ESGG-ESPA
Flight info
| Callsign | SAS25D |
|---|---|
| Flight time | 1h 28m |
| Altitude | 37000 |
| Route | NEGIL M852 OGIRO DCT RASEN DCT GOSDI |
| Aircraft | A320/M-SDE3FGHIJ1RWXYZ/ALB1 |
Departure
| Time | 2026-05-08 08:37 |
|---|---|
| Airport | Göteborg Landvetter Airport (ESGG) |
Arrival
| Time | 2026-05-08 10:05 |
|---|---|
| Airport | Luleå Airport (ESPA) |
| Time | Latitude | Longitude | Altitude | Speed | Heading |
|---|---|---|---|---|---|
| 2026-05-08 08:10 | 57.66778 | 12.29312 | 516 ft | 0 kts | 116° |
| 2026-05-08 08:27 | 57.66784 | 12.29290 | 516 ft | 4 kts | 116° |
| 2026-05-08 08:27 | 57.66796 | 12.29246 | 516 ft | 4 kts | 128° |
| 2026-05-08 08:27 | 57.66808 | 12.29223 | 516 ft | 4 kts | 151° |
| 2026-05-08 08:28 | 57.66829 | 12.29216 | 516 ft | 2 kts | 205° |
| 2026-05-08 08:28 | 57.66831 | 12.29218 | 516 ft | 0 kts | 206° |
| 2026-05-08 08:31 | 57.66815 | 12.29203 | 516 ft | 5 kts | 205° |
| 2026-05-08 08:31 | 57.66776 | 12.29138 | 516 ft | 10 kts | 253° |
| 2026-05-08 08:31 | 57.66804 | 12.28985 | 516 ft | 15 kts | 295° |
| 2026-05-08 08:32 | 57.66796 | 12.28794 | 513 ft | 15 kts | 209° |
| 2026-05-08 08:32 | 57.66689 | 12.28697 | 512 ft | 19 kts | 207° |
| 2026-05-08 08:32 | 57.66554 | 12.28573 | 512 ft | 24 kts | 206° |
| 2026-05-08 08:32 | 57.66391 | 12.28427 | 511 ft | 28 kts | 206° |
| 2026-05-08 08:33 | 57.66205 | 12.28252 | 510 ft | 32 kts | 205° |
| 2026-05-08 08:33 | 57.65992 | 12.28060 | 508 ft | 36 kts | 207° |
| 2026-05-08 08:33 | 57.65756 | 12.27848 | 505 ft | 39 kts | 205° |
| 2026-05-08 08:33 | 57.65507 | 12.27628 | 503 ft | 40 kts | 206° |
| 2026-05-08 08:34 | 57.65249 | 12.27386 | 496 ft | 42 kts | 206° |
| 2026-05-08 08:34 | 57.65017 | 12.27173 | 493 ft | 30 kts | 207° |
| 2026-05-08 08:34 | 57.64875 | 12.26998 | 485 ft | 22 kts | 255° |
| 2026-05-08 08:34 | 57.64881 | 12.26944 | 489 ft | 0 kts | 299° |
| 2026-05-08 08:35 | 57.64897 | 12.26908 | 482 ft | 16 kts | 313° |
| 2026-05-08 08:35 | 57.65068 | 12.26873 | 491 ft | 29 kts | 23° |
| 2026-05-08 08:35 | 57.65090 | 12.26892 | 492 ft | 0 kts | 24° |
| 2026-05-08 08:36 | 57.65207 | 12.26994 | 487 ft | 52 kts | 26° |
| 2026-05-08 08:36 | 57.65727 | 12.27473 | 503 ft | 111 kts | 26° |
| 2026-05-08 08:36 | 57.66560 | 12.28242 | 513 ft | 154 kts | 27° |
| 2026-05-08 08:36 | 57.67588 | 12.29144 | 676 ft | 168 kts | 26° |
| 2026-05-08 08:37 | 57.68719 | 12.30131 | 942 ft | 196 kts | 28° |
| 2026-05-08 08:37 | 57.70011 | 12.31362 | 1081 ft | 216 kts | 30° |
| 2026-05-08 08:37 | 57.71391 | 12.32926 | 1406 ft | 246 kts | 34° |
| 2026-05-08 08:37 | 57.72827 | 12.34777 | 2263 ft | 254 kts | 37° |
| 2026-05-08 08:38 | 57.74290 | 12.36686 | 3233 ft | 259 kts | 33° |
| 2026-05-08 08:38 | 57.75906 | 12.38258 | 4201 ft | 264 kts | 28° |
| 2026-05-08 08:38 | 57.77574 | 12.39771 | 5160 ft | 269 kts | 27° |
| 2026-05-08 08:38 | 57.79280 | 12.41290 | 6104 ft | 274 kts | 26° |
| 2026-05-08 08:39 | 57.81016 | 12.42827 | 7011 ft | 278 kts | 26° |
| 2026-05-08 08:39 | 57.82782 | 12.44396 | 7901 ft | 283 kts | 26° |
| 2026-05-08 08:39 | 57.84571 | 12.45990 | 8787 ft | 287 kts | 26° |
| 2026-05-08 08:39 | 57.86382 | 12.47614 | 9699 ft | 291 kts | 26° |
| 2026-05-08 08:40 | 57.88220 | 12.49275 | 10505 ft | 297 kts | 26° |
| 2026-05-08 08:40 | 57.90151 | 12.51030 | 10809 ft | 320 kts | 26° |
| 2026-05-08 08:40 | 57.92208 | 12.52898 | 11248 ft | 334 kts | 26° |
| 2026-05-08 08:40 | 57.94321 | 12.54809 | 11956 ft | 339 kts | 26° |
| 2026-05-08 08:41 | 57.96462 | 12.56744 | 12690 ft | 343 kts | 26° |
| 2026-05-08 08:41 | 57.98627 | 12.58706 | 13442 ft | 347 kts | 26° |
| 2026-05-08 08:41 | 58.00811 | 12.60689 | 14157 ft | 351 kts | 26° |
| 2026-05-08 08:41 | 58.03019 | 12.62697 | 14798 ft | 354 kts | 26° |
| 2026-05-08 08:42 | 58.05250 | 12.64728 | 15450 ft | 357 kts | 26° |
| 2026-05-08 08:42 | 58.07498 | 12.66776 | 16086 ft | 360 kts | 26° |
| 2026-05-08 08:42 | 58.09767 | 12.68846 | 16700 ft | 364 kts | 26° |
| 2026-05-08 08:42 | 58.12055 | 12.70940 | 17326 ft | 367 kts | 26° |
| 2026-05-08 08:43 | 58.14365 | 12.73058 | 17955 ft | 371 kts | 26° |
| 2026-05-08 08:43 | 58.16697 | 12.75199 | 18578 ft | 374 kts | 26° |
| 2026-05-08 08:43 | 58.19047 | 12.77362 | 19126 ft | 378 kts | 26° |
| 2026-05-08 08:43 | 58.21422 | 12.79550 | 19698 ft | 381 kts | 26° |
| 2026-05-08 08:44 | 58.23782 | 12.81732 | 20257 ft | 385 kts | 26° |
| 2026-05-08 08:44 | 58.26200 | 12.83968 | 20819 ft | 388 kts | 26° |
| 2026-05-08 08:44 | 58.28638 | 12.86223 | 21363 ft | 392 kts | 26° |
| 2026-05-08 08:44 | 58.31099 | 12.88502 | 21906 ft | 395 kts | 26° |
| 2026-05-08 08:45 | 58.33583 | 12.90808 | 22434 ft | 399 kts | 26° |
| 2026-05-08 08:45 | 58.36085 | 12.93137 | 22957 ft | 402 kts | 26° |
| 2026-05-08 08:45 | 58.38610 | 12.95485 | 23502 ft | 406 kts | 26° |
| 2026-05-08 08:45 | 58.41162 | 12.97861 | 23972 ft | 410 kts | 26° |
| 2026-05-08 08:46 | 58.43739 | 13.00266 | 24406 ft | 413 kts | 26° |
| 2026-05-08 08:46 | 58.46330 | 13.02689 | 24846 ft | 416 kts | 26° |
| 2026-05-08 08:46 | 58.48936 | 13.05129 | 25281 ft | 419 kts | 26° |
| 2026-05-08 08:46 | 58.51560 | 13.07589 | 25706 ft | 421 kts | 26° |
| 2026-05-08 08:47 | 58.54198 | 13.10068 | 26129 ft | 424 kts | 26° |
| 2026-05-08 08:47 | 58.56851 | 13.12564 | 26554 ft | 426 kts | 27° |
| 2026-05-08 08:47 | 58.59523 | 13.15084 | 26966 ft | 429 kts | 27° |
| 2026-05-08 08:47 | 58.62206 | 13.17621 | 27364 ft | 431 kts | 27° |
| 2026-05-08 08:48 | 58.64902 | 13.20177 | 27754 ft | 434 kts | 26° |
| 2026-05-08 08:48 | 58.67620 | 13.22756 | 28105 ft | 437 kts | 26° |
| 2026-05-08 08:48 | 58.70359 | 13.25357 | 28486 ft | 440 kts | 26° |
| 2026-05-08 08:48 | 58.73112 | 13.27972 | 28858 ft | 442 kts | 26° |
| 2026-05-08 08:49 | 58.75876 | 13.30606 | 29231 ft | 445 kts | 26° |
| 2026-05-08 08:49 | 58.78658 | 13.33263 | 29602 ft | 447 kts | 26° |
| 2026-05-08 08:49 | 58.81454 | 13.35936 | 29975 ft | 450 kts | 26° |
| 2026-05-08 08:49 | 58.84264 | 13.38629 | 30336 ft | 452 kts | 27° |
| 2026-05-08 08:50 | 58.87089 | 13.41339 | 30662 ft | 454 kts | 27° |
| 2026-05-08 08:50 | 58.89920 | 13.44058 | 30995 ft | 455 kts | 27° |
| 2026-05-08 08:50 | 58.92766 | 13.46794 | 31286 ft | 458 kts | 26° |
| 2026-05-08 08:50 | 58.95632 | 13.49558 | 31592 ft | 460 kts | 26° |
| 2026-05-08 08:51 | 58.98494 | 13.52330 | 32017 ft | 460 kts | 26° |
| 2026-05-08 08:51 | 59.01350 | 13.55103 | 32452 ft | 459 kts | 26° |
| 2026-05-08 08:51 | 59.04201 | 13.57878 | 32883 ft | 458 kts | 26° |
| 2026-05-08 08:51 | 59.07044 | 13.60650 | 33312 ft | 457 kts | 26° |
| 2026-05-08 08:52 | 59.09887 | 13.63425 | 33740 ft | 457 kts | 26° |
| 2026-05-08 08:52 | 59.12686 | 13.66158 | 34166 ft | 456 kts | 26° |
| 2026-05-08 08:52 | 59.15520 | 13.68920 | 34554 ft | 455 kts | 26° |
| 2026-05-08 08:52 | 59.18350 | 13.71685 | 34871 ft | 456 kts | 26° |
| 2026-05-08 08:53 | 59.21190 | 13.74468 | 35169 ft | 457 kts | 26° |
| 2026-05-08 08:53 | 59.24024 | 13.77254 | 35472 ft | 457 kts | 26° |
| 2026-05-08 08:53 | 59.26865 | 13.80057 | 35788 ft | 457 kts | 26° |
| 2026-05-08 08:53 | 59.29698 | 13.82855 | 36101 ft | 456 kts | 26° |
| 2026-05-08 08:54 | 59.32533 | 13.85659 | 36407 ft | 456 kts | 26° |
| 2026-05-08 08:54 | 59.35365 | 13.88468 | 36705 ft | 456 kts | 26° |
| 2026-05-08 08:54 | 59.38193 | 13.91285 | 37003 ft | 456 kts | 26° |
| 2026-05-08 08:54 | 59.41023 | 13.94109 | 37258 ft | 456 kts | 26° |
| 2026-05-08 08:55 | 59.46686 | 13.99754 | 37311 ft | 457 kts | 25° |
| 2026-05-08 08:55 | 59.52350 | 14.05419 | 37316 ft | 457 kts | 25° |
| 2026-05-08 08:56 | 59.58015 | 14.11104 | 37313 ft | 457 kts | 25° |
| 2026-05-08 08:56 | 59.63676 | 14.16809 | 37313 ft | 457 kts | 26° |
| 2026-05-08 08:57 | 59.69329 | 14.22533 | 37324 ft | 457 kts | 25° |
| 2026-05-08 08:57 | 59.74988 | 14.28294 | 37312 ft | 457 kts | 25° |
| 2026-05-08 08:58 | 59.80641 | 14.34077 | 37313 ft | 457 kts | 25° |
| 2026-05-08 08:58 | 59.86301 | 14.39870 | 37308 ft | 458 kts | 25° |
| 2026-05-08 08:59 | 59.91962 | 14.45675 | 37310 ft | 458 kts | 25° |
| 2026-05-08 08:59 | 59.97622 | 14.51512 | 37317 ft | 458 kts | 25° |
| 2026-05-08 09:00 | 60.03242 | 14.57347 | 37311 ft | 458 kts | 25° |
| 2026-05-08 09:00 | 60.08897 | 14.63242 | 37306 ft | 459 kts | 25° |
| 2026-05-08 09:01 | 60.14562 | 14.69164 | 37307 ft | 459 kts | 25° |
| 2026-05-08 09:01 | 60.20219 | 14.75090 | 37307 ft | 459 kts | 25° |
| 2026-05-08 09:02 | 60.25883 | 14.81036 | 37316 ft | 459 kts | 25° |
| 2026-05-08 09:02 | 60.31547 | 14.87017 | 37308 ft | 460 kts | 25° |
| 2026-05-08 09:03 | 60.37258 | 14.93079 | 37299 ft | 470 kts | 25° |
| 2026-05-08 09:03 | 60.43115 | 14.99306 | 37300 ft | 480 kts | 25° |
| 2026-05-08 09:04 | 60.49077 | 15.05682 | 37317 ft | 487 kts | 25° |
| 2026-05-08 09:04 | 60.55080 | 15.12142 | 37305 ft | 489 kts | 25° |
| 2026-05-08 09:05 | 60.61091 | 15.18643 | 37304 ft | 489 kts | 25° |
| 2026-05-08 09:05 | 60.67105 | 15.25150 | 37303 ft | 490 kts | 25° |
| 2026-05-08 09:06 | 60.73125 | 15.31703 | 37310 ft | 490 kts | 25° |
| 2026-05-08 09:06 | 60.79140 | 15.38280 | 37312 ft | 491 kts | 25° |
| 2026-05-08 09:07 | 60.85162 | 15.44887 | 37315 ft | 491 kts | 25° |
| 2026-05-08 09:07 | 60.91177 | 15.51511 | 37323 ft | 491 kts | 25° |
| 2026-05-08 09:08 | 60.97193 | 15.58175 | 37312 ft | 491 kts | 25° |
| 2026-05-08 09:08 | 61.03200 | 15.64855 | 37308 ft | 490 kts | 25° |
| 2026-05-08 09:09 | 61.09200 | 15.71556 | 37304 ft | 491 kts | 25° |
| 2026-05-08 09:09 | 61.15204 | 15.78296 | 37298 ft | 491 kts | 25° |
| 2026-05-08 09:10 | 61.21165 | 15.85016 | 37299 ft | 491 kts | 25° |
| 2026-05-08 09:10 | 61.27162 | 15.91809 | 37299 ft | 491 kts | 25° |
| 2026-05-08 09:11 | 61.33158 | 15.98609 | 37294 ft | 491 kts | 25° |
| 2026-05-08 09:11 | 61.39146 | 16.05429 | 37299 ft | 491 kts | 25° |
| 2026-05-08 09:12 | 61.45132 | 16.12300 | 37299 ft | 491 kts | 25° |
| 2026-05-08 09:12 | 61.51117 | 16.19191 | 37306 ft | 491 kts | 25° |
| 2026-05-08 09:13 | 61.57107 | 16.26110 | 37335 ft | 492 kts | 25° |
| 2026-05-08 09:13 | 61.63096 | 16.33065 | 37327 ft | 492 kts | 25° |
| 2026-05-08 09:14 | 61.69081 | 16.40049 | 37335 ft | 492 kts | 25° |
| 2026-05-08 09:14 | 61.75057 | 16.47051 | 37332 ft | 492 kts | 25° |
| 2026-05-08 09:15 | 61.81030 | 16.54091 | 37333 ft | 492 kts | 25° |
| 2026-05-08 09:15 | 61.87004 | 16.61152 | 37327 ft | 491 kts | 25° |
| 2026-05-08 09:16 | 61.91961 | 16.67035 | 37324 ft | 491 kts | 25° |
| 2026-05-08 09:16 | 61.97925 | 16.74152 | 37326 ft | 492 kts | 25° |
| 2026-05-08 09:17 | 62.04855 | 16.82457 | 37327 ft | 492 kts | 25° |
| 2026-05-08 09:17 | 62.10814 | 16.89630 | 37363 ft | 491 kts | 24° |
| 2026-05-08 09:18 | 62.15782 | 16.95638 | 37309 ft | 489 kts | 24° |
| 2026-05-08 09:18 | 62.21702 | 17.02833 | 37324 ft | 489 kts | 25° |
| 2026-05-08 09:19 | 62.27620 | 17.10058 | 37335 ft | 490 kts | 25° |
| 2026-05-08 09:19 | 62.33506 | 17.17260 | 37346 ft | 490 kts | 25° |
| 2026-05-08 09:20 | 62.39466 | 17.24587 | 37341 ft | 490 kts | 24° |
| 2026-05-08 09:20 | 62.45324 | 17.31845 | 37327 ft | 488 kts | 24° |
| 2026-05-08 09:21 | 62.51216 | 17.39171 | 37326 ft | 488 kts | 25° |
| 2026-05-08 09:23 | 62.71808 | 17.65005 | 37332 ft | 488 kts | 25° |
| 2026-05-08 09:23 | 62.77683 | 17.72458 | 37336 ft | 489 kts | 25° |
| 2026-05-08 09:24 | 62.83565 | 17.79948 | 37340 ft | 489 kts | 25° |
| 2026-05-08 09:24 | 62.89440 | 17.87478 | 37340 ft | 490 kts | 25° |
| 2026-05-08 09:25 | 62.95306 | 17.95038 | 37371 ft | 484 kts | 25° |
| 2026-05-08 09:25 | 62.98148 | 17.98724 | 37726 ft | 467 kts | 25° |
| 2026-05-08 09:25 | 63.00965 | 18.02373 | 37164 ft | 471 kts | 24° |
| 2026-05-08 09:25 | 63.03783 | 18.06019 | 36669 ft | 467 kts | 24° |
| 2026-05-08 09:26 | 63.06554 | 18.09621 | 36413 ft | 458 kts | 24° |
| 2026-05-08 09:26 | 63.09271 | 18.13167 | 36151 ft | 451 kts | 23° |
| 2026-05-08 09:26 | 63.11960 | 18.16682 | 35900 ft | 447 kts | 23° |
| 2026-05-08 09:26 | 63.14626 | 18.20166 | 35653 ft | 444 kts | 22° |
| 2026-05-08 09:27 | 63.17275 | 18.23633 | 35408 ft | 441 kts | 22° |
| 2026-05-08 09:27 | 63.19908 | 18.27091 | 35205 ft | 438 kts | 22° |
| 2026-05-08 09:27 | 63.22520 | 18.30530 | 34964 ft | 435 kts | 21° |
| 2026-05-08 09:27 | 63.25115 | 18.33953 | 34726 ft | 432 kts | 21° |
| 2026-05-08 09:28 | 63.27692 | 18.37361 | 34487 ft | 430 kts | 21° |
| 2026-05-08 09:28 | 63.30254 | 18.40756 | 34239 ft | 427 kts | 21° |
| 2026-05-08 09:28 | 63.32798 | 18.44133 | 33959 ft | 425 kts | 21° |
| 2026-05-08 09:28 | 63.35330 | 18.47500 | 33681 ft | 423 kts | 21° |
| 2026-05-08 09:29 | 63.37849 | 18.50853 | 33404 ft | 421 kts | 21° |
| 2026-05-08 09:29 | 63.40356 | 18.54192 | 33130 ft | 419 kts | 21° |
| 2026-05-08 09:29 | 63.42852 | 18.57526 | 32854 ft | 417 kts | 21° |
| 2026-05-08 09:29 | 63.45336 | 18.60854 | 32586 ft | 415 kts | 21° |
| 2026-05-08 09:30 | 63.47803 | 18.64175 | 32323 ft | 413 kts | 21° |
| 2026-05-08 09:30 | 63.50260 | 18.67491 | 32061 ft | 411 kts | 21° |
| 2026-05-08 09:30 | 63.52709 | 18.70798 | 31794 ft | 410 kts | 21° |
| 2026-05-08 09:30 | 63.55144 | 18.74091 | 31524 ft | 408 kts | 21° |
| 2026-05-08 09:31 | 63.57565 | 18.77380 | 31166 ft | 406 kts | 21° |
| 2026-05-08 09:31 | 63.59968 | 18.80653 | 30816 ft | 403 kts | 21° |
| 2026-05-08 09:31 | 63.62351 | 18.83902 | 30497 ft | 399 kts | 21° |
| 2026-05-08 09:31 | 63.64713 | 18.87126 | 30132 ft | 395 kts | 21° |
| 2026-05-08 09:32 | 63.67055 | 18.90320 | 29749 ft | 393 kts | 21° |
| 2026-05-08 09:32 | 63.69383 | 18.93501 | 29379 ft | 390 kts | 21° |
| 2026-05-08 09:32 | 63.71697 | 18.96669 | 29007 ft | 388 kts | 21° |
| 2026-05-08 09:32 | 63.73996 | 18.99824 | 28703 ft | 385 kts | 21° |
| 2026-05-08 09:33 | 63.76275 | 19.02965 | 28339 ft | 382 kts | 21° |
| 2026-05-08 09:33 | 63.78538 | 19.06090 | 27987 ft | 380 kts | 21° |
| 2026-05-08 09:33 | 63.80781 | 19.09197 | 27635 ft | 378 kts | 23° |
| 2026-05-08 09:33 | 63.82906 | 19.12791 | 27286 ft | 382 kts | 28° |
| 2026-05-08 09:34 | 63.84977 | 19.16536 | 26937 ft | 380 kts | 29° |
| 2026-05-08 09:34 | 63.87027 | 19.20305 | 26604 ft | 378 kts | 30° |
| 2026-05-08 09:34 | 63.89060 | 19.24070 | 26290 ft | 377 kts | 30° |
| 2026-05-08 09:34 | 63.91085 | 19.27815 | 25931 ft | 374 kts | 30° |
| 2026-05-08 09:35 | 63.93100 | 19.31539 | 25582 ft | 372 kts | 30° |
| 2026-05-08 09:35 | 63.95075 | 19.35183 | 25239 ft | 369 kts | 30° |
| 2026-05-08 09:35 | 63.97065 | 19.38852 | 24893 ft | 367 kts | 30° |
| 2026-05-08 09:35 | 63.99042 | 19.42501 | 24555 ft | 365 kts | 30° |
| 2026-05-08 09:36 | 64.01005 | 19.46140 | 24266 ft | 362 kts | 30° |
| 2026-05-08 09:36 | 64.02948 | 19.49751 | 23934 ft | 359 kts | 30° |
| 2026-05-08 09:36 | 64.04879 | 19.53341 | 23545 ft | 357 kts | 30° |
| 2026-05-08 09:36 | 64.06794 | 19.56907 | 23131 ft | 354 kts | 30° |
| 2026-05-08 09:37 | 64.08699 | 19.60458 | 22713 ft | 352 kts | 30° |
| 2026-05-08 09:37 | 64.10591 | 19.63984 | 22299 ft | 350 kts | 30° |
| 2026-05-08 09:37 | 64.12471 | 19.67499 | 21891 ft | 348 kts | 31° |
| 2026-05-08 09:37 | 64.14335 | 19.70993 | 21489 ft | 346 kts | 31° |
| 2026-05-08 09:38 | 64.16190 | 19.74486 | 21087 ft | 344 kts | 31° |
| 2026-05-08 09:38 | 64.18028 | 19.77959 | 20695 ft | 342 kts | 32° |
| 2026-05-08 09:38 | 64.19856 | 19.81416 | 20306 ft | 340 kts | 32° |
| 2026-05-08 09:38 | 64.21673 | 19.84848 | 19925 ft | 337 kts | 32° |
| 2026-05-08 09:39 | 64.23483 | 19.88272 | 19547 ft | 336 kts | 32° |
| 2026-05-08 09:39 | 64.25281 | 19.91673 | 19172 ft | 334 kts | 33° |
| 2026-05-08 09:39 | 64.27069 | 19.95059 | 18833 ft | 332 kts | 32° |
| 2026-05-08 09:39 | 64.28846 | 19.98432 | 18451 ft | 330 kts | 32° |
| 2026-05-08 09:40 | 64.30610 | 20.01794 | 18024 ft | 328 kts | 33° |
| 2026-05-08 09:40 | 64.32364 | 20.05143 | 17609 ft | 327 kts | 33° |
| 2026-05-08 09:40 | 64.34110 | 20.08484 | 17199 ft | 325 kts | 33° |
| 2026-05-08 09:40 | 64.35846 | 20.11813 | 16792 ft | 324 kts | 33° |
| 2026-05-08 09:41 | 64.37573 | 20.15126 | 16389 ft | 322 kts | 33° |
| 2026-05-08 09:41 | 64.39294 | 20.18429 | 15994 ft | 321 kts | 33° |
| 2026-05-08 09:41 | 64.41006 | 20.21719 | 15588 ft | 319 kts | 33° |
| 2026-05-08 09:41 | 64.42710 | 20.25001 | 15210 ft | 318 kts | 33° |
| 2026-05-08 09:42 | 64.44408 | 20.28284 | 14835 ft | 317 kts | 34° |
| 2026-05-08 09:42 | 64.46097 | 20.31558 | 14465 ft | 316 kts | 34° |
| 2026-05-08 09:42 | 64.47783 | 20.34825 | 14084 ft | 315 kts | 34° |
| 2026-05-08 09:42 | 64.49483 | 20.38116 | 13301 ft | 325 kts | 34° |
| 2026-05-08 09:43 | 64.51231 | 20.41503 | 12702 ft | 328 kts | 35° |
| 2026-05-08 09:43 | 64.52977 | 20.44907 | 12248 ft | 327 kts | 36° |
| 2026-05-08 09:43 | 64.54689 | 20.48254 | 11806 ft | 325 kts | 36° |
| 2026-05-08 09:43 | 64.56405 | 20.51618 | 11149 ft | 320 kts | 36° |
| 2026-05-08 09:44 | 64.58098 | 20.54940 | 10380 ft | 317 kts | 37° |
| 2026-05-08 09:44 | 64.59770 | 20.58230 | 9775 ft | 309 kts | 37° |
| 2026-05-08 09:44 | 64.61333 | 20.61315 | 9659 ft | 286 kts | 37° |
| 2026-05-08 09:44 | 64.62866 | 20.64327 | 9246 ft | 288 kts | 37° |
| 2026-05-08 09:45 | 64.64394 | 20.67331 | 8920 ft | 286 kts | 37° |
| 2026-05-08 09:45 | 64.65910 | 20.70318 | 8567 ft | 285 kts | 37° |
| 2026-05-08 09:45 | 64.67416 | 20.73295 | 8235 ft | 283 kts | 37° |
| 2026-05-08 09:45 | 64.68917 | 20.76264 | 7907 ft | 282 kts | 37° |
| 2026-05-08 09:46 | 64.70407 | 20.79215 | 7571 ft | 280 kts | 37° |
| 2026-05-08 09:46 | 64.71891 | 20.82158 | 7249 ft | 279 kts | 37° |
| 2026-05-08 09:46 | 64.73367 | 20.85086 | 7032 ft | 277 kts | 37° |
| 2026-05-08 09:46 | 64.74837 | 20.88011 | 7038 ft | 278 kts | 37° |
| 2026-05-08 09:47 | 64.76314 | 20.90960 | 7032 ft | 279 kts | 37° |
| 2026-05-08 09:47 | 64.77791 | 20.93915 | 7050 ft | 279 kts | 38° |
| 2026-05-08 09:47 | 64.79270 | 20.96877 | 7041 ft | 280 kts | 38° |
| 2026-05-08 09:47 | 64.80745 | 20.99837 | 7036 ft | 279 kts | 38° |
| 2026-05-08 09:48 | 64.82224 | 21.02803 | 7035 ft | 280 kts | 38° |
| 2026-05-08 09:48 | 64.83702 | 21.05764 | 7036 ft | 279 kts | 38° |
| 2026-05-08 09:48 | 64.85180 | 21.08728 | 7031 ft | 279 kts | 38° |
| 2026-05-08 09:48 | 64.86657 | 21.11703 | 7035 ft | 279 kts | 38° |
| 2026-05-08 09:49 | 64.88130 | 21.14681 | 6889 ft | 281 kts | 38° |
| 2026-05-08 09:49 | 64.89657 | 21.17765 | 6002 ft | 297 kts | 38° |
| 2026-05-08 09:49 | 64.91272 | 21.21024 | 5053 ft | 314 kts | 39° |
| 2026-05-08 09:49 | 64.92951 | 21.24422 | 4500 ft | 315 kts | 39° |
| 2026-05-08 09:50 | 64.94570 | 21.27725 | 4364 ft | 301 kts | 39° |
| 2026-05-08 09:50 | 64.96121 | 21.30901 | 4232 ft | 289 kts | 39° |
| 2026-05-08 09:50 | 64.97613 | 21.33960 | 4097 ft | 279 kts | 39° |
| 2026-05-08 09:50 | 64.99028 | 21.37000 | 3963 ft | 271 kts | 45° |
| 2026-05-08 09:51 | 65.00253 | 21.40284 | 3728 ft | 266 kts | 47° |
| 2026-05-08 09:51 | 65.01476 | 21.43599 | 3420 ft | 265 kts | 48° |
| 2026-05-08 09:51 | 65.02687 | 21.46874 | 3114 ft | 264 kts | 47° |
| 2026-05-08 09:51 | 65.03893 | 21.50131 | 2803 ft | 263 kts | 48° |
| 2026-05-08 09:52 | 65.05096 | 21.53385 | 2479 ft | 263 kts | 49° |
| 2026-05-08 09:52 | 65.06297 | 21.56633 | 2173 ft | 261 kts | 49° |
| 2026-05-08 09:52 | 65.07486 | 21.59861 | 2137 ft | 261 kts | 49° |
| 2026-05-08 09:52 | 65.08679 | 21.63120 | 2135 ft | 262 kts | 49° |
| 2026-05-08 09:53 | 65.09871 | 21.66386 | 2139 ft | 263 kts | 49° |
| 2026-05-08 09:53 | 65.11063 | 21.69654 | 2133 ft | 257 kts | 49° |
| 2026-05-08 09:53 | 65.12197 | 21.72764 | 2135 ft | 242 kts | 49° |
| 2026-05-08 09:53 | 65.13264 | 21.75689 | 2130 ft | 226 kts | 49° |
| 2026-05-08 09:54 | 65.14262 | 21.78427 | 2129 ft | 214 kts | 49° |
| 2026-05-08 09:54 | 65.15232 | 21.81090 | 2136 ft | 213 kts | 49° |
| 2026-05-08 09:54 | 65.16184 | 21.83714 | 2131 ft | 213 kts | 49° |
| 2026-05-08 09:54 | 65.17151 | 21.86384 | 2135 ft | 214 kts | 49° |
| 2026-05-08 09:55 | 65.18137 | 21.89105 | 2138 ft | 214 kts | 49° |
| 2026-05-08 09:55 | 65.19093 | 21.91749 | 2139 ft | 213 kts | 49° |
| 2026-05-08 09:55 | 65.20059 | 21.94423 | 2135 ft | 214 kts | 50° |
| 2026-05-08 09:55 | 65.21027 | 21.97107 | 2140 ft | 214 kts | 49° |
| 2026-05-08 09:56 | 65.22000 | 21.99804 | 2136 ft | 214 kts | 49° |
| 2026-05-08 09:56 | 65.22967 | 22.02483 | 2141 ft | 212 kts | 49° |
| 2026-05-08 09:56 | 65.23930 | 22.05157 | 2139 ft | 212 kts | 49° |
| 2026-05-08 09:56 | 65.24895 | 22.07839 | 2138 ft | 213 kts | 49° |
| 2026-05-08 09:57 | 65.26819 | 22.13203 | 2144 ft | 212 kts | 49° |
| 2026-05-08 09:57 | 65.27775 | 22.15872 | 2151 ft | 211 kts | 49° |
| 2026-05-08 09:57 | 65.28729 | 22.18539 | 2150 ft | 211 kts | 49° |
| 2026-05-08 09:58 | 65.29682 | 22.21214 | 2146 ft | 211 kts | 49° |
| 2026-05-08 09:58 | 65.30635 | 22.23896 | 2145 ft | 212 kts | 49° |
| 2026-05-08 09:58 | 65.31588 | 22.26572 | 2145 ft | 211 kts | 49° |
| 2026-05-08 09:58 | 65.32542 | 22.29251 | 2148 ft | 211 kts | 49° |
| 2026-05-08 09:59 | 65.33496 | 22.31927 | 2151 ft | 211 kts | 48° |
| 2026-05-08 09:59 | 65.34476 | 22.34544 | 2143 ft | 211 kts | 47° |
| 2026-05-08 09:59 | 65.35472 | 22.37130 | 2144 ft | 211 kts | 46° |
| 2026-05-08 09:59 | 65.36472 | 22.39710 | 2144 ft | 211 kts | 46° |
| 2026-05-08 10:00 | 65.37475 | 22.42281 | 2150 ft | 211 kts | 44° |
| 2026-05-08 10:00 | 65.38690 | 22.43981 | 2139 ft | 199 kts | 8° |
| 2026-05-08 10:00 | 65.40008 | 22.43631 | 2121 ft | 190 kts | 329° |
| 2026-05-08 10:00 | 65.41023 | 22.41693 | 2127 ft | 185 kts | 315° |
| 2026-05-08 10:01 | 65.41922 | 22.39707 | 2149 ft | 168 kts | 315° |
| 2026-05-08 10:01 | 65.42745 | 22.37897 | 2117 ft | 153 kts | 315° |
| 2026-05-08 10:01 | 65.43497 | 22.36242 | 2093 ft | 143 kts | 315° |
| 2026-05-08 10:01 | 65.44226 | 22.34635 | 2108 ft | 140 kts | 315° |
| 2026-05-08 10:02 | 65.44935 | 22.33077 | 2090 ft | 140 kts | 314° |
| 2026-05-08 10:02 | 65.45652 | 22.31498 | 1967 ft | 139 kts | 314° |
| 2026-05-08 10:02 | 65.46375 | 22.29905 | 1820 ft | 143 kts | 314° |
| 2026-05-08 10:02 | 65.47112 | 22.28280 | 1642 ft | 144 kts | 315° |
| 2026-05-08 10:03 | 65.47850 | 22.26652 | 1452 ft | 144 kts | 314° |
| 2026-05-08 10:03 | 65.48591 | 22.25016 | 1263 ft | 145 kts | 314° |
| 2026-05-08 10:03 | 65.49334 | 22.23375 | 1071 ft | 145 kts | 315° |
| 2026-05-08 10:03 | 65.50076 | 22.21735 | 874 ft | 146 kts | 313° |
| 2026-05-08 10:04 | 65.50823 | 22.20082 | 679 ft | 146 kts | 314° |
| 2026-05-08 10:04 | 65.51565 | 22.18438 | 507 ft | 145 kts | 314° |
| 2026-05-08 10:04 | 65.52305 | 22.16799 | 318 ft | 145 kts | 314° |
| 2026-05-08 10:04 | 65.53048 | 22.15149 | 137 ft | 145 kts | 313° |
| 2026-05-08 10:05 | 65.53773 | 22.13519 | 34 ft | 131 kts | 316° |
| 2026-05-08 10:05 | 65.54141 | 22.12724 | 41 ft | 79 kts | 318° |
| 2026-05-08 10:05 | 65.54438 | 22.12078 | 46 ft | 53 kts | 317° |
| 2026-05-08 10:05 | 65.54693 | 22.11499 | 54 ft | 47 kts | 317° |
| 2026-05-08 10:06 | 65.54777 | 22.11441 | 52 ft | 11 kts | 31° |
| 2026-05-08 10:06 | 65.54848 | 22.11628 | 54 ft | 19 kts | 52° |
| 2026-05-08 10:06 | 65.54864 | 22.11668 | 54 ft | 2 kts | 47° |
| 2026-05-08 10:06 | 65.54886 | 22.11726 | 54 ft | 10 kts | 46° |
| 2026-05-08 10:07 | 65.54909 | 22.11937 | 53 ft | 18 kts | 117° |
| 2026-05-08 10:07 | 65.54839 | 22.12119 | 50 ft | 8 kts | 105° |
| 2026-05-08 10:07 | 65.54867 | 22.12222 | 52 ft | 6 kts | 47° |
| 2026-05-08 10:07 | 65.54872 | 22.12234 | 52 ft | 0 kts | 46° |